sensor_id;sensor_type;location;lat;lon;timestamp;pressure;altitude;pressure_sealevel;temperature;humidity
50430;BME280;36359;41.556;-8.418;2023-07-20T00:00:29;100165.94;;;24.05;71.79
50430;BME280;36359;41.556;-8.418;2023-07-20T00:03:10;100159.69;;;23.98;72.30
50430;BME280;36359;41.556;-8.418;2023-07-20T00:05:38;100164.41;;;23.86;74.47
50430;BME280;36359;41.556;-8.418;2023-07-20T00:08:04;100162.22;;;23.88;74.29
50430;BME280;36359;41.556;-8.418;2023-07-20T00:10:30;100161.16;;;23.89;72.54
50430;BME280;36359;41.556;-8.418;2023-07-20T00:12:55;100162.69;;;23.85;72.79
50430;BME280;36359;41.556;-8.418;2023-07-20T00:15:21;100166.78;;;23.82;72.84
50430;BME280;36359;41.556;-8.418;2023-07-20T00:17:47;100168.97;;;23.80;72.89
50430;BME280;36359;41.556;-8.418;2023-07-20T00:20:12;100163.50;;;23.50;73.71
50430;BME280;36359;41.556;-8.418;2023-07-20T00:22:38;100170.94;;;23.38;74.50
50430;BME280;36359;41.556;-8.418;2023-07-20T00:25:04;100178.84;;;23.22;75.04
50430;BME280;36359;41.556;-8.418;2023-07-20T00:27:30;100168.81;;;22.98;76.23
50430;BME280;36359;41.556;-8.418;2023-07-20T00:29:55;100168.81;;;22.79;77.44
50430;BME280;36359;41.556;-8.418;2023-07-20T00:32:21;100169.09;;;22.89;77.40
50430;BME280;36359;41.556;-8.418;2023-07-20T00:34:47;100166.22;;;22.66;78.60
50430;BME280;36359;41.556;-8.418;2023-07-20T00:37:13;100168.59;;;22.81;77.80
50430;BME280;36359;41.556;-8.418;2023-07-20T00:39:38;100165.75;;;22.69;78.50
50430;BME280;36359;41.556;-8.418;2023-07-20T00:42:04;100169.16;;;22.53;78.54
50430;BME280;36359;41.556;-8.418;2023-07-20T00:44:30;100169.41;;;22.51;78.91
50430;BME280;36359;41.556;-8.418;2023-07-20T00:46:56;100172.72;;;22.41;79.14
50430;BME280;36359;41.556;-8.418;2023-07-20T00:49:22;100166.41;;;22.16;80.36
50430;BME280;36359;41.556;-8.418;2023-07-20T00:51:49;100165.34;;;22.17;80.91
50430;BME280;36359;41.556;-8.418;2023-07-20T00:54:16;100166.41;;;22.16;80.50
50430;BME280;36359;41.556;-8.418;2023-07-20T00:56:42;100168.22;;;22.04;81.29
50430;BME280;36359;41.556;-8.418;2023-07-20T00:59:09;100170.19;;;21.78;82.74
50430;BME280;36359;41.556;-8.418;2023-07-20T01:01:36;100175.16;;;21.69;83.73
50430;BME280;36359;41.556;-8.418;2023-07-20T01:04:01;100169.53;;;21.83;82.78
50430;BME280;36359;41.556;-8.418;2023-07-20T01:06:36;100168.53;;;21.95;81.81
50430;BME280;36359;41.556;-8.418;2023-07-20T01:09:16;100165.59;;;21.90;82.37
50430;BME280;36359;41.556;-8.418;2023-07-20T01:14:16;100168.41;;;22.45;79.41
50430;BME280;36359;41.556;-8.418;2023-07-20T01:16:42;100167.16;;;22.60;80.11
50430;BME280;36359;41.556;-8.418;2023-07-20T01:19:08;100165.06;;;22.74;80.68
50430;BME280;36359;41.556;-8.418;2023-07-20T01:32:26;100159.25;;;22.63;78.00
50430;BME280;36359;41.556;-8.418;2023-07-20T01:34:53;100154.91;;;22.67;77.24
50430;BME280;36359;41.556;-8.418;2023-07-20T01:37:21;100159.53;;;22.74;80.01
50430;BME280;36359;41.556;-8.418;2023-07-20T01:39:52;100151.19;;;22.62;78.43
50430;BME280;36359;41.556;-8.418;2023-07-20T01:42:24;100145.59;;;22.50;77.63
50430;BME280;36359;41.556;-8.418;2023-07-20T01:44:51;100142.91;;;22.62;77.97
50430;BME280;36359;41.556;-8.418;2023-07-20T01:47:18;100146.88;;;22.66;77.88
50430;BME280;36359;41.556;-8.418;2023-07-20T01:49:43;100139.88;;;22.63;77.84
50430;BME280;36359;41.556;-8.418;2023-07-20T01:52:10;100144.72;;;22.68;77.46
50430;BME280;36359;41.556;-8.418;2023-07-20T01:54:35;100145.66;;;22.62;78.47
50430;BME280;36359;41.556;-8.418;2023-07-20T01:57:01;100139.00;;;22.51;78.43
50430;BME280;36359;41.556;-8.418;2023-07-20T01:59:27;100144.75;;;22.13;79.29
50430;BME280;36359;41.556;-8.418;2023-07-20T02:01:53;100138.75;;;22.16;79.16
50430;BME280;36359;41.556;-8.418;2023-07-20T02:04:18;100145.91;;;21.62;82.90
50430;BME280;36359;41.556;-8.418;2023-07-20T02:06:44;100137.06;;;21.53;83.15
50430;BME280;36359;41.556;-8.418;2023-07-20T02:09:10;100145.34;;;21.53;82.91
50430;BME280;36359;41.556;-8.418;2023-07-20T02:11:36;100146.41;;;21.27;84.25
50430;BME280;36359;41.556;-8.418;2023-07-20T02:14:01;100139.50;;;21.43;83.97
50430;BME280;36359;41.556;-8.418;2023-07-20T02:16:27;100144.13;;;21.49;83.24
50430;BME280;36359;41.556;-8.418;2023-07-20T02:18:53;100136.19;;;21.59;83.09
50430;BME280;36359;41.556;-8.418;2023-07-20T02:21:18;100137.16;;;21.65;82.42
50430;BME280;36359;41.556;-8.418;2023-07-20T02:23:45;100138.41;;;21.44;83.54
50430;BME280;36359;41.556;-8.418;2023-07-20T02:26:10;100134.81;;;21.43;83.38
50430;BME280;36359;41.556;-8.418;2023-07-20T02:28:36;100129.69;;;20.90;86.04
50430;BME280;36359;41.556;-8.418;2023-07-20T02:31:02;100130.91;;;21.26;85.13
50430;BME280;36359;41.556;-8.418;2023-07-20T02:33:29;100130.00;;;21.39;84.07
50430;BME280;36359;41.556;-8.418;2023-07-20T02:35:54;100118.91;;;21.45;83.52
50430;BME280;36359;41.556;-8.418;2023-07-20T02:38:20;100123.44;;;21.58;83.22
50430;BME280;36359;41.556;-8.418;2023-07-20T02:40:46;100128.13;;;21.58;83.12
50430;BME280;36359;41.556;-8.418;2023-07-20T02:43:12;100121.38;;;21.53;83.03
50430;BME280;36359;41.556;-8.418;2023-07-20T02:45:41;100125.69;;;21.43;83.59
50430;BME280;36359;41.556;-8.418;2023-07-20T02:48:08;100129.75;;;21.40;83.88
50430;BME280;36359;41.556;-8.418;2023-07-20T02:50:34;100121.94;;;21.37;83.41
50430;BME280;36359;41.556;-8.418;2023-07-20T02:53:01;100121.22;;;21.17;84.21
50430;BME280;36359;41.556;-8.418;2023-07-20T02:55:26;100115.19;;;21.26;83.94
50430;BME280;36359;41.556;-8.418;2023-07-20T02:57:52;100123.69;;;21.25;84.17
50430;BME280;36359;41.556;-8.418;2023-07-20T03:00:18;100113.38;;;21.14;85.48
50430;BME280;36359;41.556;-8.418;2023-07-20T03:02:46;100112.84;;;21.30;83.91
50430;BME280;36359;41.556;-8.418;2023-07-20T03:05:18;100119.97;;;21.44;83.16
50430;BME280;36359;41.556;-8.418;2023-07-20T03:07:43;100113.13;;;21.22;83.69
50430;BME280;36359;41.556;-8.418;2023-07-20T03:10:10;100112.50;;;20.95;85.58
50430;BME280;36359;41.556;-8.418;2023-07-20T03:12:36;100111.13;;;21.04;84.92
50430;BME280;36359;41.556;-8.418;2023-07-20T03:15:02;100114.22;;;20.51;88.20
50430;BME280;36359;41.556;-8.418;2023-07-20T03:17:28;100119.91;;;20.62;87.98
50430;BME280;36359;41.556;-8.418;2023-07-20T03:19:55;100117.41;;;20.48;88.83
50430;BME280;36359;41.556;-8.418;2023-07-20T03:22:22;100098.41;;;20.26;89.13
50430;BME280;36359;41.556;-8.418;2023-07-20T03:24:47;100114.66;;;20.48;88.76
50430;BME280;36359;41.556;-8.418;2023-07-20T03:27:13;100115.28;;;20.56;87.65
50430;BME280;36359;41.556;-8.418;2023-07-20T03:29:39;100119.50;;;20.59;87.73
50430;BME280;36359;41.556;-8.418;2023-07-20T03:32:05;100116.31;;;20.55;87.98
50430;BME280;36359;41.556;-8.418;2023-07-20T03:34:31;100115.69;;;20.47;88.54
50430;BME280;36359;41.556;-8.418;2023-07-20T03:36:57;100112.81;;;20.28;89.25
50430;BME280;36359;41.556;-8.418;2023-07-20T03:39:23;100113.75;;;20.09;90.31
50430;BME280;36359;41.556;-8.418;2023-07-20T03:41:48;100121.31;;;20.20;90.49
50430;BME280;36359;41.556;-8.418;2023-07-20T03:44:14;100115.94;;;19.87;92.17
50430;BME280;36359;41.556;-8.418;2023-07-20T03:46:40;100129.63;;;20.13;91.69
50430;BME280;36359;41.556;-8.418;2023-07-20T03:49:05;100117.47;;;20.34;90.22
50430;BME280;36359;41.556;-8.418;2023-07-20T03:51:32;100114.97;;;20.19;90.79
50430;BME280;36359;41.556;-8.418;2023-07-20T03:53:58;100123.41;;;20.31;89.59
50430;BME280;36359;41.556;-8.418;2023-07-20T03:56:23;100117.69;;;20.26;90.02
50430;BME280;36359;41.556;-8.418;2023-07-20T03:58:50;100118.13;;;20.30;90.03
50430;BME280;36359;41.556;-8.418;2023-07-20T04:01:15;100116.13;;;20.50;89.30
50430;BME280;36359;41.556;-8.418;2023-07-20T04:03:42;100117.66;;;20.39;89.34
50430;BME280;36359;41.556;-8.418;2023-07-20T04:06:08;100127.59;;;20.47;88.43
50430;BME280;36359;41.556;-8.418;2023-07-20T04:08:36;100118.63;;;20.58;89.47
50430;BME280;36359;41.556;-8.418;2023-07-20T04:11:02;100114.78;;;20.66;87.82
50430;BME280;36359;41.556;-8.418;2023-07-20T04:13:28;100118.06;;;20.81;86.91
50430;BME280;36359;41.556;-8.418;2023-07-20T04:15:54;100113.13;;;20.58;87.06
50430;BME280;36359;41.556;-8.418;2023-07-20T04:18:20;100113.63;;;20.42;88.25
50430;BME280;36359;41.556;-8.418;2023-07-20T04:20:46;100115.81;;;20.27;90.02
50430;BME280;36359;41.556;-8.418;2023-07-20T04:23:12;100111.16;;;20.20;89.77
50430;BME280;36359;41.556;-8.418;2023-07-20T04:25:41;100110.81;;;19.97;91.03
50430;BME280;36359;41.556;-8.418;2023-07-20T04:28:10;100115.91;;;20.00;91.38
50430;BME280;36359;41.556;-8.418;2023-07-20T04:30:38;100114.16;;;20.12;91.78
50430;BME280;36359;41.556;-8.418;2023-07-20T04:33:06;100116.91;;;20.19;90.41
50430;BME280;36359;41.556;-8.418;2023-07-20T04:35:47;100114.25;;;20.37;88.95
50430;BME280;36359;41.556;-8.418;2023-07-20T04:38:16;100113.56;;;20.49;88.65
50430;BME280;36359;41.556;-8.418;2023-07-20T04:40:47;100111.06;;;20.47;89.45
50430;BME280;36359;41.556;-8.418;2023-07-20T04:43:14;100122.91;;;20.54;89.28
50430;BME280;36359;41.556;-8.418;2023-07-20T04:45:40;100128.31;;;20.23;89.46
50430;BME280;36359;41.556;-8.418;2023-07-20T04:48:09;100129.50;;;19.55;93.34
50430;BME280;36359;41.556;-8.418;2023-07-20T04:50:37;100127.63;;;19.69;93.82
50430;BME280;36359;41.556;-8.418;2023-07-20T04:53:03;100124.59;;;20.04;91.12
50430;BME280;36359;41.556;-8.418;2023-07-20T04:55:29;100124.38;;;19.99;91.15
50430;BME280;36359;41.556;-8.418;2023-07-20T05:00:27;100139.88;;;19.00;96.88
50430;BME280;36359;41.556;-8.418;2023-07-20T05:02:53;100143.47;;;19.20;95.95
50430;BME280;36359;41.556;-8.418;2023-07-20T05:05:20;100149.34;;;19.97;94.99
50430;BME280;36359;41.556;-8.418;2023-07-20T05:07:45;100140.69;;;19.93;91.49
50430;BME280;36359;41.556;-8.418;2023-07-20T05:10:11;100154.72;;;19.39;94.98
50430;BME280;36359;41.556;-8.418;2023-07-20T05:12:37;100152.59;;;19.61;93.72
50430;BME280;36359;41.556;-8.418;2023-07-20T05:15:03;100140.31;;;19.77;93.63
50430;BME280;36359;41.556;-8.418;2023-07-20T05:17:29;100139.03;;;19.79;93.46
50430;BME280;36359;41.556;-8.418;2023-07-20T05:19:55;100139.66;;;19.94;92.52
50430;BME280;36359;41.556;-8.418;2023-07-20T05:22:21;100135.78;;;20.02;91.81
50430;BME280;36359;41.556;-8.418;2023-07-20T05:24:46;100139.41;;;20.09;91.96
50430;BME280;36359;41.556;-8.418;2023-07-20T05:27:12;100141.94;;;20.04;92.82
50430;BME280;36359;41.556;-8.418;2023-07-20T05:29:42;100145.69;;;20.23;91.55
50430;BME280;36359;41.556;-8.418;2023-07-20T05:32:08;100157.34;;;20.25;93.75
50430;BME280;36359;41.556;-8.418;2023-07-20T05:34:35;100156.91;;;20.28;89.83
50430;BME280;36359;41.556;-8.418;2023-07-20T05:37:00;100156.97;;;20.08;91.27
50430;BME280;36359;41.556;-8.418;2023-07-20T05:39:26;100167.28;;;20.26;90.88
50430;BME280;36359;41.556;-8.418;2023-07-20T05:41:52;100172.63;;;20.21;90.67
50430;BME280;36359;41.556;-8.418;2023-07-20T05:44:18;100159.06;;;20.19;91.19
50430;BME280;36359;41.556;-8.418;2023-07-20T05:46:43;100172.16;;;20.31;90.87
50430;BME280;36359;41.556;-8.418;2023-07-20T05:49:09;100161.25;;;20.56;90.92
50430;BME280;36359;41.556;-8.418;2023-07-20T05:51:35;100163.63;;;20.52;90.51
50430;BME280;36359;41.556;-8.418;2023-07-20T05:54:01;100171.59;;;20.67;89.71
50430;BME280;36359;41.556;-8.418;2023-07-20T05:56:27;100176.66;;;20.77;88.87
50430;BME280;36359;41.556;-8.418;2023-07-20T05:58:53;100169.00;;;21.10;87.46
50430;BME280;36359;41.556;-8.418;2023-07-20T06:01:19;100175.22;;;20.99;87.47
50430;BME280;36359;41.556;-8.418;2023-07-20T06:03:44;100177.22;;;21.17;87.62
50430;BME280;36359;41.556;-8.418;2023-07-20T06:06:10;100175.31;;;21.18;86.70
50430;BME280;36359;41.556;-8.418;2023-07-20T06:08:37;100175.06;;;21.26;86.33
50430;BME280;36359;41.556;-8.418;2023-07-20T06:11:03;100182.47;;;21.00;87.23
50430;BME280;36359;41.556;-8.418;2023-07-20T06:13:29;100188.56;;;21.02;88.86
50430;BME280;36359;41.556;-8.418;2023-07-20T06:15:55;100181.88;;;20.85;89.38
50430;BME280;36359;41.556;-8.418;2023-07-20T06:18:24;100189.41;;;20.71;89.78
50430;BME280;36359;41.556;-8.418;2023-07-20T06:20:52;100193.66;;;20.74;88.54
50430;BME280;36359;41.556;-8.418;2023-07-20T06:23:19;100191.81;;;20.41;90.52
50430;BME280;36359;41.556;-8.418;2023-07-20T06:25:45;100192.38;;;19.98;93.46
50430;BME280;36359;41.556;-8.418;2023-07-20T06:28:11;100189.63;;;19.51;96.00
50430;BME280;36359;41.556;-8.418;2023-07-20T06:30:37;100197.72;;;19.80;96.11
50430;BME280;36359;41.556;-8.418;2023-07-20T06:33:03;100201.09;;;19.88;94.41
50430;BME280;36359;41.556;-8.418;2023-07-20T06:35:28;100200.25;;;19.68;95.73
50430;BME280;36359;41.556;-8.418;2023-07-20T06:37:54;100202.34;;;19.79;95.61
50430;BME280;36359;41.556;-8.418;2023-07-20T06:40:20;100195.16;;;19.71;95.93
50430;BME280;36359;41.556;-8.418;2023-07-20T06:42:46;100198.19;;;20.93;91.75
50430;BME280;36359;41.556;-8.418;2023-07-20T06:45:12;100191.31;;;21.41;86.89
50430;BME280;36359;41.556;-8.418;2023-07-20T06:47:38;100200.00;;;21.44;86.65
50430;BME280;36359;41.556;-8.418;2023-07-20T06:50:09;100208.78;;;20.96;88.16
50430;BME280;36359;41.556;-8.418;2023-07-20T06:52:35;100206.16;;;20.70;89.85
50430;BME280;36359;41.556;-8.418;2023-07-20T06:55:01;100220.97;;;19.97;94.11
50430;BME280;36359;41.556;-8.418;2023-07-20T06:57:27;100214.28;;;20.38;94.07
50430;BME280;36359;41.556;-8.418;2023-07-20T06:59:52;100205.25;;;20.24;93.77
50430;BME280;36359;41.556;-8.418;2023-07-20T07:02:19;100205.13;;;21.09;90.12
50430;BME280;36359;41.556;-8.418;2023-07-20T07:04:45;100206.69;;;21.23;88.02
50430;BME280;36359;41.556;-8.418;2023-07-20T07:07:15;100208.69;;;21.48;86.72
50430;BME280;36359;41.556;-8.418;2023-07-20T07:09:41;100209.31;;;21.12;88.24
50430;BME280;36359;41.556;-8.418;2023-07-20T07:12:07;100208.22;;;21.19;88.56
50430;BME280;36359;41.556;-8.418;2023-07-20T07:14:33;100208.25;;;21.13;88.56
50430;BME280;36359;41.556;-8.418;2023-07-20T07:17:00;100206.94;;;21.22;88.00
50430;BME280;36359;41.556;-8.418;2023-07-20T07:19:25;100212.78;;;21.39;87.36
50430;BME280;36359;41.556;-8.418;2023-07-20T07:21:51;100215.66;;;21.19;87.77
50430;BME280;36359;41.556;-8.418;2023-07-20T07:24:17;100213.00;;;21.87;85.46
50430;BME280;36359;41.556;-8.418;2023-07-20T07:26:43;100204.19;;;21.53;85.76
50430;BME280;36359;41.556;-8.418;2023-07-20T07:29:09;100214.03;;;21.43;86.31
50430;BME280;36359;41.556;-8.418;2023-07-20T07:31:35;100213.88;;;21.63;85.78
50430;BME280;36359;41.556;-8.418;2023-07-20T07:34:02;100212.16;;;21.62;85.59
50430;BME280;36359;41.556;-8.418;2023-07-20T07:36:28;100228.22;;;21.96;84.07
50430;BME280;36359;41.556;-8.418;2023-07-20T07:38:54;100222.16;;;22.31;81.70
50430;BME280;36359;41.556;-8.418;2023-07-20T07:41:19;100221.22;;;21.94;83.92
50430;BME280;36359;41.556;-8.418;2023-07-20T07:43:46;100218.31;;;21.39;86.84
50430;BME280;36359;41.556;-8.418;2023-07-20T07:46:12;100220.13;;;21.13;88.29
50430;BME280;36359;41.556;-8.418;2023-07-20T07:48:38;100218.53;;;21.37;87.62
50430;BME280;36359;41.556;-8.418;2023-07-20T07:51:04;100221.53;;;21.61;86.30
50430;BME280;36359;41.556;-8.418;2023-07-20T07:53:30;100218.09;;;21.65;85.71
50430;BME280;36359;41.556;-8.418;2023-07-20T07:55:55;100216.34;;;21.71;85.07
50430;BME280;36359;41.556;-8.418;2023-07-20T07:58:21;100222.78;;;22.08;83.99
50430;BME280;36359;41.556;-8.418;2023-07-20T08:00:47;100234.97;;;22.26;82.70
50430;BME280;36359;41.556;-8.418;2023-07-20T08:03:13;100235.22;;;22.24;82.05
50430;BME280;36359;41.556;-8.418;2023-07-20T08:05:39;100235.69;;;22.39;81.79
50430;BME280;36359;41.556;-8.418;2023-07-20T08:08:04;100228.84;;;22.42;81.28
50430;BME280;36359;41.556;-8.418;2023-07-20T08:10:30;100233.16;;;22.13;82.83
50430;BME280;36359;41.556;-8.418;2023-07-20T08:12:56;100230.84;;;21.91;83.72
50430;BME280;36359;41.556;-8.418;2023-07-20T08:15:22;100227.16;;;21.97;83.17
50430;BME280;36359;41.556;-8.418;2023-07-20T08:17:47;100234.13;;;22.25;82.09
50430;BME280;36359;41.556;-8.418;2023-07-20T08:20:14;100235.22;;;21.74;84.73
50430;BME280;36359;41.556;-8.418;2023-07-20T08:22:41;100241.13;;;22.03;83.93
50430;BME280;36359;41.556;-8.418;2023-07-20T08:25:08;100232.00;;;22.27;82.55
50430;BME280;36359;41.556;-8.418;2023-07-20T08:27:34;100230.88;;;22.10;82.74
50430;BME280;36359;41.556;-8.418;2023-07-20T08:30:00;100230.38;;;21.69;84.91
50430;BME280;36359;41.556;-8.418;2023-07-20T08:32:26;100231.81;;;21.47;86.60
50430;BME280;36359;41.556;-8.418;2023-07-20T08:34:52;100236.69;;;21.51;86.39
50430;BME280;36359;41.556;-8.418;2023-07-20T08:37:18;100238.84;;;21.74;85.23
50430;BME280;36359;41.556;-8.418;2023-07-20T08:39:43;100240.56;;;22.19;83.37
50430;BME280;36359;41.556;-8.418;2023-07-20T08:42:10;100239.53;;;22.38;82.10
50430;BME280;36359;41.556;-8.418;2023-07-20T08:44:39;100236.97;;;22.74;80.40
50430;BME280;36359;41.556;-8.418;2023-07-20T08:47:07;100249.19;;;22.48;80.79
50430;BME280;36359;41.556;-8.418;2023-07-20T08:49:34;100252.25;;;22.39;81.62
50430;BME280;36359;41.556;-8.418;2023-07-20T08:52:00;100252.03;;;21.97;83.66
50430;BME280;36359;41.556;-8.418;2023-07-20T08:54:30;100249.25;;;21.47;86.54
50430;BME280;36359;41.556;-8.418;2023-07-20T08:57:04;100248.16;;;21.73;85.71
50430;BME280;36359;41.556;-8.418;2023-07-20T08:59:31;100245.59;;;21.78;85.29
50430;BME280;36359;41.556;-8.418;2023-07-20T09:02:00;100257.78;;;21.39;87.12
50430;BME280;36359;41.556;-8.418;2023-07-20T09:04:27;100254.81;;;21.34;88.54
50430;BME280;36359;41.556;-8.418;2023-07-20T09:06:53;100257.56;;;21.34;88.49
50430;BME280;36359;41.556;-8.418;2023-07-20T09:09:20;100246.38;;;21.86;85.68
50430;BME280;36359;41.556;-8.418;2023-07-20T09:11:49;100260.69;;;22.26;83.38
50430;BME280;36359;41.556;-8.418;2023-07-20T09:14:15;100252.19;;;22.28;83.21
50430;BME280;36359;41.556;-8.418;2023-07-20T09:16:53;100252.72;;;22.73;80.75
50430;BME280;36359;41.556;-8.418;2023-07-20T09:19:20;100258.72;;;22.33;82.66
50430;BME280;36359;41.556;-8.418;2023-07-20T09:21:48;100255.47;;;22.18;83.25
50430;BME280;36359;41.556;-8.418;2023-07-20T09:24:15;100257.53;;;21.72;86.35
50430;BME280;36359;41.556;-8.418;2023-07-20T09:26:42;100247.97;;;21.43;88.51
50430;BME280;36359;41.556;-8.418;2023-07-20T09:29:14;100255.56;;;21.54;87.67
50430;BME280;36359;41.556;-8.418;2023-07-20T09:31:40;100252.06;;;21.91;86.05
50430;BME280;36359;41.556;-8.418;2023-07-20T09:34:06;100251.50;;;21.82;85.75
50430;BME280;36359;41.556;-8.418;2023-07-20T09:36:36;100262.09;;;21.85;85.90
50430;BME280;36359;41.556;-8.418;2023-07-20T09:39:03;100269.25;;;21.93;85.56
50430;BME280;36359;41.556;-8.418;2023-07-20T09:41:30;100261.88;;;21.23;89.44
50430;BME280;36359;41.556;-8.418;2023-07-20T09:44:05;100270.56;;;21.65;87.61
50430;BME280;36359;41.556;-8.418;2023-07-20T09:46:49;100274.78;;;21.36;88.80
50430;BME280;36359;41.556;-8.418;2023-07-20T09:49:22;100273.47;;;21.45;88.73
50430;BME280;36359;41.556;-8.418;2023-07-20T09:51:48;100275.84;;;21.67;87.37
50430;BME280;36359;41.556;-8.418;2023-07-20T09:54:14;100280.53;;;21.28;89.86
50430;BME280;36359;41.556;-8.418;2023-07-20T09:56:40;100281.09;;;21.75;87.09
50430;BME280;36359;41.556;-8.418;2023-07-20T09:59:07;100291.19;;;21.18;90.56
50430;BME280;36359;41.556;-8.418;2023-07-20T10:01:34;100288.22;;;20.68;94.37
50430;BME280;36359;41.556;-8.418;2023-07-20T10:04:03;100290.41;;;20.26;96.13
50430;BME280;36359;41.556;-8.418;2023-07-20T10:06:32;100291.59;;;20.83;93.95
50430;BME280;36359;41.556;-8.418;2023-07-20T10:09:01;100291.16;;;20.79;94.33
50430;BME280;36359;41.556;-8.418;2023-07-20T10:11:30;100289.53;;;20.52;96.42
50430;BME280;36359;41.556;-8.418;2023-07-20T10:13:59;100288.94;;;21.01;93.18
50430;BME280;36359;41.556;-8.418;2023-07-20T10:16:28;100296.78;;;21.49;89.71
50430;BME280;36359;41.556;-8.418;2023-07-20T10:19:22;100296.44;;;21.96;86.71
50430;BME280;36359;41.556;-8.418;2023-07-20T10:21:57;100289.97;;;21.52;89.47
50430;BME280;36359;41.556;-8.418;2023-07-20T10:24:27;100295.16;;;20.90;93.73
50430;BME280;36359;41.556;-8.418;2023-07-20T10:26:55;100293.50;;;20.82;93.60
50430;BME280;36359;41.556;-8.418;2023-07-20T10:29:21;100296.25;;;21.66;88.40
50430;BME280;36359;41.556;-8.418;2023-07-20T10:31:48;100295.13;;;21.98;86.83
50430;BME280;36359;41.556;-8.418;2023-07-20T10:34:16;100306.09;;;22.55;82.95
50430;BME280;36359;41.556;-8.418;2023-07-20T10:36:45;100302.50;;;23.10;79.83
50430;BME280;36359;41.556;-8.418;2023-07-20T10:39:32;100301.41;;;23.11;80.24
50430;BME280;36359;41.556;-8.418;2023-07-20T10:42:09;100307.41;;;22.89;80.73
50430;BME280;36359;41.556;-8.418;2023-07-20T10:44:39;100297.50;;;22.82;81.10
50430;BME280;36359;41.556;-8.418;2023-07-20T10:47:12;100304.88;;;22.88;81.14
50430;BME280;36359;41.556;-8.418;2023-07-20T10:49:58;100295.56;;;22.82;81.00
50430;BME280;36359;41.556;-8.418;2023-07-20T10:52:24;100302.94;;;23.25;78.43
50430;BME280;36359;41.556;-8.418;2023-07-20T10:54:50;100303.88;;;23.49;76.87
50430;BME280;36359;41.556;-8.418;2023-07-20T10:57:30;100307.16;;;23.28;77.74
50430;BME280;36359;41.556;-8.418;2023-07-20T11:02:43;100305.44;;;23.15;78.84
50430;BME280;36359;41.556;-8.418;2023-07-20T11:07:57;100304.44;;;23.40;77.33
50430;BME280;36359;41.556;-8.418;2023-07-20T11:10:23;100300.03;;;23.50;76.96
50430;BME280;36359;41.556;-8.418;2023-07-20T11:13:21;100309.34;;;23.38;77.30
50430;BME280;36359;41.556;-8.418;2023-07-20T11:16:08;100308.91;;;22.74;79.84
50430;BME280;36359;41.556;-8.418;2023-07-20T11:18:34;100302.09;;;23.25;77.68
50430;BME280;36359;41.556;-8.418;2023-07-20T11:21:07;100295.00;;;22.99;78.57
50430;BME280;36359;41.556;-8.418;2023-07-20T11:23:37;100293.81;;;22.88;79.22
50430;BME280;36359;41.556;-8.418;2023-07-20T11:26:03;100298.72;;;23.65;76.09
50430;BME280;36359;41.556;-8.418;2023-07-20T11:28:33;100307.78;;;24.37;72.34
50430;BME280;36359;41.556;-8.418;2023-07-20T11:30:59;100299.94;;;24.69;69.81
50430;BME280;36359;41.556;-8.418;2023-07-20T11:33:26;100299.91;;;24.93;68.81
50430;BME280;36359;41.556;-8.418;2023-07-20T11:35:52;100304.34;;;24.94;68.59
50430;BME280;36359;41.556;-8.418;2023-07-20T11:38:18;100306.66;;;24.85;69.09
50430;BME280;36359;41.556;-8.418;2023-07-20T11:40:45;100301.41;;;25.24;67.79
50430;BME280;36359;41.556;-8.418;2023-07-20T11:43:12;100302.25;;;25.25;66.69
50430;BME280;36359;41.556;-8.418;2023-07-20T11:45:38;100299.75;;;25.40;65.63
50430;BME280;36359;41.556;-8.418;2023-07-20T11:48:04;100300.66;;;25.86;64.83
50430;BME280;36359;41.556;-8.418;2023-07-20T11:50:30;100298.16;;;25.44;62.78
50430;BME280;36359;41.556;-8.418;2023-07-20T11:52:56;100300.53;;;25.52;64.80
50430;BME280;36359;41.556;-8.418;2023-07-20T11:55:22;100298.75;;;24.30;68.40
50430;BME280;36359;41.556;-8.418;2023-07-20T11:58:04;100293.72;;;25.03;67.52
50430;BME280;36359;41.556;-8.418;2023-07-20T12:03:05;100296.25;;;25.04;65.45
50430;BME280;36359;41.556;-8.418;2023-07-20T12:05:38;100294.09;;;25.64;65.12
50430;BME280;36359;41.556;-8.418;2023-07-20T12:08:04;100295.84;;;25.98;63.03
50430;BME280;36359;41.556;-8.418;2023-07-20T12:10:30;100287.03;;;25.73;63.50
50430;BME280;36359;41.556;-8.418;2023-07-20T12:13:01;100285.31;;;26.00;62.00
50430;BME280;36359;41.556;-8.418;2023-07-20T12:15:29;100283.81;;;26.10;62.57
50430;BME280;36359;41.556;-8.418;2023-07-20T12:18:02;100290.63;;;26.19;60.96
50430;BME280;36359;41.556;-8.418;2023-07-20T12:20:37;100280.47;;;26.29;60.16
50430;BME280;36359;41.556;-8.418;2023-07-20T12:23:10;100277.66;;;26.08;60.61
50430;BME280;36359;41.556;-8.418;2023-07-20T12:28:08;100270.72;;;25.31;62.68
50430;BME280;36359;41.556;-8.418;2023-07-20T12:30:34;100270.97;;;25.75;61.99
50430;BME280;36359;41.556;-8.418;2023-07-20T12:32:59;100268.19;;;25.75;63.35
50430;BME280;36359;41.556;-8.418;2023-07-20T12:35:25;100278.47;;;26.08;61.59
50430;BME280;36359;41.556;-8.418;2023-07-20T12:37:51;100266.91;;;25.66;63.27
50430;BME280;36359;41.556;-8.418;2023-07-20T12:40:17;100277.63;;;25.91;61.84
50430;BME280;36359;41.556;-8.418;2023-07-20T12:42:43;100272.16;;;26.13;60.90
50430;BME280;36359;41.556;-8.418;2023-07-20T12:45:09;100265.78;;;26.12;60.17
50430;BME280;36359;41.556;-8.418;2023-07-20T12:47:36;100260.13;;;26.24;59.12
50430;BME280;36359;41.556;-8.418;2023-07-20T12:50:02;100263.91;;;26.18;58.24
50430;BME280;36359;41.556;-8.418;2023-07-20T12:52:29;100257.59;;;26.05;59.90
50430;BME280;36359;41.556;-8.418;2023-07-20T12:54:55;100260.97;;;25.91;60.80
50430;BME280;36359;41.556;-8.418;2023-07-20T12:57:21;100256.16;;;26.03;60.58
50430;BME280;36359;41.556;-8.418;2023-07-20T12:59:49;100251.81;;;26.29;60.92
50430;BME280;36359;41.556;-8.418;2023-07-20T13:02:15;100244.66;;;26.33;58.83
50430;BME280;36359;41.556;-8.418;2023-07-20T13:04:41;100250.09;;;26.62;59.13
50430;BME280;36359;41.556;-8.418;2023-07-20T13:07:10;100247.81;;;27.03;58.64